Heat Index [SAI AWOS/ASOS Display]_________FAA Disclaimer: "Not for use in aviation at this time______________" Untitled Document
Indianapolis Executive Airport IN
330
16:06
18/04/25
08
N/A
N/A
30.03
N/A
922
49(F), 9(C)
48(F), 9(C)
46 F
100%
OVC004
3
Mist
N/A
N/A
16:06 zulu Wind 330 at 08 Knots, Altimeter 30.03
METAR KTYQ 251606Z AUTO 33008KT 3SM BR OVC004 09/09 A3003 A02
METAR:
FAA Disclaimer--Advisory Use ONLY, not for flight info-- 2/21/2009: Airport FBO 317-769-3288... New URL for smartphones... http://www.saiawos2.com/TYQ
INFO:
Wind Direction:
Wind Speed:
Wind Gust:
Wind Variable:
Altimeter:
Dens Alt:
Elev:
Temp:
Dwpt:
Wind Chill
Rel Humidity:
Ceiling:
Visibility:
Prsnt Wea:
PCPN:
Remarks:
How to read the WebPage